Time;durP1;ratioP1;P1;durP2;ratioP2;P2;SDS_P1;SDS_P2;PMS_P1;PMS_P2;Temp;Humidity;BMP_temperature;BMP_pressure;BME280_temperature;BME280_humidity;BME280_pressure;Samples;Min_cycle;Max_cycle;Signal;HPM_P1;HPM_P2
2024/03/11 00:01:47;;;;;;;79.43;39.53;;;;;;;;;;7796882;22;24378;-79
2024/03/11 00:04:50;;;;;;;48.50;27.63;;;;;;;;;;7797825;22;24454;-83
2024/03/11 00:07:52;;;;;;;159.95;69.07;;;;;;;;;;7799502;22;24368;-84
2024/03/11 00:10:59;;;;;;;12.88;9.10;;;;;;;;;;7798144;22;24424;-84
2024/03/11 00:14:01;;;;;;;20.73;12.52;;;;;;;;;;7797782;22;24796;-83
2024/03/11 00:17:03;;;;;;;85.85;41.00;;;;;;;;;;7798339;22;24381;-83
2024/03/11 00:20:09;;;;;;;30.48;17.98;;;;;;;;;;7797239;22;24409;-84
2024/03/11 00:23:10;;;;;;;10.43;7.28;;;;;;;;;;7793560;22;24641;-84
2024/03/11 00:26:12;;;;;;;8.52;6.25;;;;;;;;;;7790083;22;24370;-84
2024/03/11 00:29:14;;;;;;;7.95;6.35;;;;;;;;;;7789098;22;24428;-85
2024/03/11 00:32:16;;;;;;;7.90;6.10;;;;;;;;;;7789065;22;24378;-85
2024/03/11 00:35:19;;;;;;;8.25;6.45;;;;;;;;;;7789416;22;24385;-84
2024/03/11 00:38:22;;;;;;;8.65;6.40;;;;;;;;;;7786832;22;24459;-84
2024/03/11 00:41:25;;;;;;;8.13;6.10;;;;;;;;;;7790323;22;24424;-85
2024/03/11 00:44:29;;;;;;;10.02;6.57;;;;;;;;;;7789220;22;24424;-84
2024/03/11 00:47:31;;;;;;;7.97;6.20;;;;;;;;;;7789631;22;24389;-85
2024/03/11 00:50:34;;;;;;;10.32;6.40;;;;;;;;;;7788311;22;24378;-84
2024/03/11 00:53:36;;;;;;;7.43;5.88;;;;;;;;;;7789078;22;24458;-84
2024/03/11 00:56:38;;;;;;;8.15;6.15;;;;;;;;;;7789411;22;24482;-84
2024/03/11 00:59:40;;;;;;;9.88;6.30;;;;;;;;;;7788421;22;24432;-84
2024/03/11 01:02:42;;;;;;;7.95;6.07;;;;;;;;;;7793400;22;25050;-84
2024/03/11 01:05:46;;;;;;;8.05;5.80;;;;;;;;;;7795136;22;24436;-85
2024/03/11 01:08:48;;;;;;;8.20;5.87;;;;;;;;;;7794835;22;24405;-84
2024/03/11 01:11:50;;;;;;;7.43;6.40;;;;;;;;;;7793250;22;24380;-84
2024/03/11 01:14:51;;;;;;;7.63;6.00;;;;;;;;;;7794063;22;24389;-80
2024/03/11 01:17:55;;;;;;;8.02;6.30;;;;;;;;;;7794378;22;24401;-80
2024/03/11 01:21:00;;;;;;;8.57;6.18;;;;;;;;;;7794206;22;24393;-80
2024/03/11 01:24:01;;;;;;;9.00;6.22;;;;;;;;;;7794501;22;24379;-80
2024/03/11 01:27:10;;;;;;;7.68;6.00;;;;;;;;;;7794552;22;24393;-80
2024/03/11 01:30:14;;;;;;;8.95;6.30;;;;;;;;;;7794347;22;24818;-79
2024/03/11 01:33:16;;;;;;;8.50;6.17;;;;;;;;;;7794030;22;24417;-79
2024/03/11 01:36:19;;;;;;;8.00;6.27;;;;;;;;;;7794179;22;24424;-80
2024/03/11 01:39:26;;;;;;;7.97;6.45;;;;;;;;;;7794600;22;24370;-79
2024/03/11 01:42:29;;;;;;;10.15;6.13;;;;;;;;;;7794877;22;24596;-79
2024/03/11 01:45:32;;;;;;;8.10;6.15;;;;;;;;;;7794152;22;25017;-79
2024/03/11 01:48:34;;;;;;;8.52;6.28;;;;;;;;;;7794420;22;24768;-79
2024/03/11 01:51:38;;;;;;;9.90;6.15;;;;;;;;;;7792918;22;24385;-79
2024/03/11 01:54:40;;;;;;;7.53;5.70;;;;;;;;;;7793571;22;24378;-79
2024/03/11 01:57:42;;;;;;;7.50;4.90;;;;;;;;;;7793783;22;24581;-79
2024/03/11 02:00:45;;;;;;;8.02;4.90;;;;;;;;;;7792153;22;24869;-79
2024/03/11 02:03:47;;;;;;;5.82;4.55;;;;;;;;;;7792697;22;24390;-79
2024/03/11 02:06:51;;;;;;;6.47;4.90;;;;;;;;;;7792079;22;24382;-79
2024/03/11 02:09:53;;;;;;;7.43;4.85;;;;;;;;;;7792588;22;24412;-79
2024/03/11 02:12:58;;;;;;;4.90;4.20;;;;;;;;;;7793778;22;24432;-79
2024/03/11 02:16:00;;;;;;;8.48;5.60;;;;;;;;;;7793729;22;24747;-79
2024/03/11 02:19:03;;;;;;;6.80;5.20;;;;;;;;;;7793858;22;24416;-79
2024/03/11 02:22:08;;;;;;;7.72;4.80;;;;;;;;;;7793128;22;24776;-79
2024/03/11 02:25:13;;;;;;;6.28;4.28;;;;;;;;;;7793041;22;24386;-84
2024/03/11 02:28:14;;;;;;;6.60;4.35;;;;;;;;;;7792974;22;24378;-84
2024/03/11 02:31:17;;;;;;;7.05;4.70;;;;;;;;;;7792930;22;24700;-83
2024/03/11 02:34:18;;;;;;;6.82;4.75;;;;;;;;;;7792498;22;24384;-84
2024/03/11 02:37:21;;;;;;;6.30;5.10;;;;;;;;;;7793546;22;24786;-85
2024/03/11 02:40:27;;;;;;;7.47;5.53;;;;;;;;;;7793678;22;24378;-84
2024/03/11 02:43:29;;;;;;;7.35;5.30;;;;;;;;;;7792679;22;24607;-84
2024/03/11 02:46:31;;;;;;;6.50;5.10;;;;;;;;;;7793951;22;24411;-85
2024/03/11 02:49:33;;;;;;;8.38;5.20;;;;;;;;;;7792916;22;24882;-84
2024/03/11 02:52:36;;;;;;;8.70;5.40;;;;;;;;;;7794024;22;24685;-84
2024/03/11 02:55:40;;;;;;;8.23;5.33;;;;;;;;;;7793705;22;24967;-84
2024/03/11 02:58:41;;;;;;;6.88;4.90;;;;;;;;;;7793233;22;24381;-84
2024/03/11 03:01:43;;;;;;;6.63;5.00;;;;;;;;;;7793318;22;24382;-85
2024/03/11 03:04:45;;;;;;;7.97;5.55;;;;;;;;;;7794034;22;24374;-85
2024/03/11 03:07:47;;;;;;;6.45;4.72;;;;;;;;;;7793861;22;24386;-84
2024/03/11 03:10:50;;;;;;;6.88;4.93;;;;;;;;;;7792778;22;24448;-85
2024/03/11 03:13:52;;;;;;;6.32;4.78;;;;;;;;;;7794519;22;24370;-84
2024/03/11 03:16:53;;;;;;;7.10;5.00;;;;;;;;;;7791478;22;24604;-84
2024/03/11 03:19:55;;;;;;;6.72;4.75;;;;;;;;;;7793380;22;24474;-85
2024/03/11 03:22:57;;;;;;;5.75;4.55;;;;;;;;;;7794011;22;24409;-85
2024/03/11 03:26:00;;;;;;;6.15;4.68;;;;;;;;;;7796106;22;24382;-85
2024/03/11 03:29:01;;;;;;;7.33;4.73;;;;;;;;;;7795515;22;24439;-84
2024/03/11 03:32:03;;;;;;;5.97;4.40;;;;;;;;;;7796065;22;24505;-85
2024/03/11 03:35:06;;;;;;;6.88;4.90;;;;;;;;;;7795898;22;24989;-85
2024/03/11 03:38:08;;;;;;;5.68;4.60;;;;;;;;;;7795722;22;24435;-84
2024/03/11 03:41:10;;;;;;;7.00;5.03;;;;;;;;;;7795576;22;24435;-85
2024/03/11 03:44:12;;;;;;;7.50;4.80;;;;;;;;;;7795808;22;24587;-84
2024/03/11 03:47:15;;;;;;;7.45;4.93;;;;;;;;;;7794916;22;24389;-84
2024/03/11 03:50:17;;;;;;;6.72;4.70;;;;;;;;;;7795103;22;24586;-85
2024/03/11 03:53:19;;;;;;;7.43;5.20;;;;;;;;;;7796108;22;24389;-85
2024/03/11 03:56:25;;;;;;;6.28;4.82;;;;;;;;;;7795655;22;24619;-85
2024/03/11 03:59:28;;;;;;;6.72;4.47;;;;;;;;;;7795587;22;24608;-85
2024/03/11 04:02:29;;;;;;;6.40;4.57;;;;;;;;;;7794924;22;24397;-85
2024/03/11 04:05:31;;;;;;;6.03;4.35;;;;;;;;;;7795653;22;24561;-84
2024/03/11 04:08:33;;;;;;;6.07;4.60;;;;;;;;;;7795784;22;24428;-84
2024/03/11 04:11:36;;;;;;;6.60;4.72;;;;;;;;;;7794090;22;24386;-84
2024/03/11 04:14:39;;;;;;;6.13;4.50;;;;;;;;;;7796242;22;24371;-84
2024/03/11 04:17:41;;;;;;;6.82;4.60;;;;;;;;;;7795557;22;24389;-85
2024/03/11 04:20:43;;;;;;;6.30;4.40;;;;;;;;;;7795601;22;24448;-84
2024/03/11 04:23:45;;;;;;;6.93;4.20;;;;;;;;;;7795722;22;24405;-84
2024/03/11 04:26:48;;;;;;;5.55;4.10;;;;;;;;;;7796297;22;24636;-84
2024/03/11 04:29:50;;;;;;;5.47;3.93;;;;;;;;;;7796003;22;24852;-84
2024/03/11 04:32:54;;;;;;;5.47;4.03;;;;;;;;;;7794905;22;24420;-85
2024/03/11 04:35:56;;;;;;;5.65;3.83;;;;;;;;;;7795126;22;24437;-85
2024/03/11 04:38:57;;;;;;;5.55;3.58;;;;;;;;;;7794837;22;24370;-85
2024/03/11 04:42:01;;;;;;;4.97;3.60;;;;;;;;;;7794630;22;24390;-85
2024/03/11 04:45:02;;;;;;;5.15;3.55;;;;;;;;;;7795267;22;24463;-85
2024/03/11 04:48:05;;;;;;;5.10;3.67;;;;;;;;;;7795444;22;24378;-85
2024/03/11 04:51:07;;;;;;;5.00;3.33;;;;;;;;;;7795183;22;24634;-85
2024/03/11 04:54:09;;;;;;;3.60;2.90;;;;;;;;;;7795672;22;24425;-84
2024/03/11 04:57:12;;;;;;;4.80;3.43;;;;;;;;;;7794806;22;24389;-85
2024/03/11 05:00:14;;;;;;;6.00;3.47;;;;;;;;;;7794729;22;24420;-85
2024/03/11 05:03:18;;;;;;;4.43;3.33;;;;;;;;;;7795943;22;24389;-85
2024/03/11 05:06:20;;;;;;;5.70;3.70;;;;;;;;;;7795007;22;24377;-85
2024/03/11 05:09:22;;;;;;;6.07;3.15;;;;;;;;;;7795055;22;24378;-85
2024/03/11 05:12:25;;;;;;;5.90;4.00;;;;;;;;;;7795372;22;24385;-85
2024/03/11 05:15:28;;;;;;;6.22;3.50;;;;;;;;;;7795421;22;24371;-85
2024/03/11 05:18:30;;;;;;;7.03;3.78;;;;;;;;;;7794244;22;24424;-85
2024/03/11 05:21:32;;;;;;;4.88;3.65;;;;;;;;;;7794411;22;24783;-86
2024/03/11 05:24:34;;;;;;;4.32;3.55;;;;;;;;;;7795910;22;24424;-86
2024/03/11 05:27:38;;;;;;;4.78;3.80;;;;;;;;;;7794442;22;24755;-85
2024/03/11 05:30:40;;;;;;;6.47;4.13;;;;;;;;;;7794260;22;24389;-85
2024/03/11 05:33:42;;;;;;;4.80;3.90;;;;;;;;;;7794330;22;24762;-84
2024/03/11 05:36:43;;;;;;;7.00;4.30;;;;;;;;;;7794917;22;24386;-85
2024/03/11 05:39:45;;;;;;;6.30;4.50;;;;;;;;;;7794589;22;24389;-85
2024/03/11 05:42:49;;;;;;;6.30;4.57;;;;;;;;;;7794045;22;24424;-86
2024/03/11 05:45:50;;;;;;;6.50;4.33;;;;;;;;;;7793618;22;24428;-85
2024/03/11 05:48:52;;;;;;;5.83;4.03;;;;;;;;;;7793748;22;24431;-85
2024/03/11 05:51:54;;;;;;;6.75;4.50;;;;;;;;;;7793440;22;24608;-86
2024/03/11 05:54:57;;;;;;;6.00;4.67;;;;;;;;;;7793637;22;24463;-85
2024/03/11 05:58:08;;;;;;;7.60;4.40;;;;;;;;;;7793926;22;24378;-85
2024/03/11 06:01:09;;;;;;;6.47;4.37;;;;;;;;;;7792841;22;24389;-86
2024/03/11 06:04:11;;;;;;;8.03;4.67;;;;;;;;;;7795201;22;24465;-86
2024/03/11 06:07:13;;;;;;;6.53;4.20;;;;;;;;;;7793577;22;24650;-86
2024/03/11 06:10:14;;;;;;;5.90;3.70;;;;;;;;;;7793992;22;24964;-86
2024/03/11 06:13:17;;;;;;;6.63;4.40;;;;;;;;;;7794116;22;24369;-85
2024/03/11 06:16:19;;;;;;;7.20;4.80;;;;;;;;;;7794362;22;24503;-85
2024/03/11 06:19:21;;;;;;;7.43;4.10;;;;;;;;;;7794090;22;24396;-86
2024/03/11 06:22:23;;;;;;;7.55;4.50;;;;;;;;;;7794203;22;24414;-85
2024/03/11 06:25:24;;;;;;;6.97;4.72;;;;;;;;;;7794554;22;24785;-85
2024/03/11 06:28:28;;;;;;;6.78;4.43;;;;;;;;;;7794131;22;24374;-85
2024/03/11 06:31:29;;;;;;;6.95;4.95;;;;;;;;;;7794327;22;24400;-86
2024/03/11 06:34:31;;;;;;;6.22;4.57;;;;;;;;;;7794467;22;24465;-85
2024/03/11 06:37:33;;;;;;;7.47;4.70;;;;;;;;;;7794028;22;24799;-86
2024/03/11 06:40:34;;;;;;;6.60;4.73;;;;;;;;;;7793913;22;24373;-86
2024/03/11 06:43:38;;;;;;;6.67;5.13;;;;;;;;;;7794037;22;24724;-86
2024/03/11 06:46:39;;;;;;;8.23;4.95;;;;;;;;;;7794013;22;24376;-86
2024/03/11 06:49:41;;;;;;;6.63;4.80;;;;;;;;;;7793099;22;24394;-85
2024/03/11 06:52:43;;;;;;;6.70;4.63;;;;;;;;;;7793009;22;24431;-86
2024/03/11 06:55:45;;;;;;;250.55;25.33;;;;;;;;;;7794929;22;24382;-93
2024/03/11 06:58:49;;;;;;;29.20;6.35;;;;;;;;;;7795428;22;24393;-90
2024/03/11 07:01:51;;;;;;;5.47;4.20;;;;;;;;;;7795743;22;24412;-93
2024/03/11 07:04:54;;;;;;;6.35;3.78;;;;;;;;;;7796862;22;24389;-88
2024/03/11 07:07:56;;;;;;;5.57;3.95;;;;;;;;;;7793607;22;24398;-86
2024/03/11 07:11:00;;;;;;;5.68;3.70;;;;;;;;;;7794167;22;24424;-87
2024/03/11 07:14:03;;;;;;;6.53;4.22;;;;;;;;;;7794132;22;24378;-87
2024/03/11 07:17:05;;;;;;;6.20;4.13;;;;;;;;;;7794353;22;24386;-87
2024/03/11 07:20:08;;;;;;;5.80;4.60;;;;;;;;;;7793460;22;24773;-87
2024/03/11 07:23:10;;;;;;;6.43;4.45;;;;;;;;;;7793042;22;24378;-86
2024/03/11 07:26:12;;;;;;;7.22;5.30;;;;;;;;;;7793482;22;24371;-86
2024/03/11 07:29:15;;;;;;;6.70;5.10;;;;;;;;;;7792814;22;24443;-85
2024/03/11 07:32:16;;;;;;;5.40;3.70;;;;;;;;;;7793170;22;24409;-87
2024/03/11 07:35:18;;;;;;;10.03;6.70;;;;;;;;;;7793241;22;24818;-85
2024/03/11 07:38:23;;;;;;;9.40;7.97;;;;;;;;;;7791943;22;24374;-86
2024/03/11 07:41:26;;;;;;;9.70;8.13;;;;;;;;;;7793358;22;24393;-86
2024/03/11 07:44:29;;;;;;;8.60;7.03;;;;;;;;;;7792804;22;24385;-86
2024/03/11 07:47:30;;;;;;;8.73;7.22;;;;;;;;;;7793406;22;24393;-87
2024/03/11 07:50:32;;;;;;;9.68;7.47;;;;;;;;;;7792986;22;24389;-87
2024/03/11 07:53:34;;;;;;;10.40;6.72;;;;;;;;;;7792534;22;24374;-87
2024/03/11 07:56:36;;;;;;;9.93;6.15;;;;;;;;;;7794297;22;24751;-87
2024/03/11 07:59:39;;;;;;;7.45;5.93;;;;;;;;;;7794987;22;24404;-89
2024/03/11 08:02:40;;;;;;;8.15;5.97;;;;;;;;;;7795549;22;24390;-89
2024/03/11 08:05:43;;;;;;;9.75;6.68;;;;;;;;;;7794554;22;24412;-89
2024/03/11 08:08:45;;;;;;;9.93;6.22;;;;;;;;;;7795556;22;24370;-89
2024/03/11 08:11:46;;;;;;;9.68;6.78;;;;;;;;;;7797049;22;24459;-89
2024/03/11 08:14:49;;;;;;;9.93;6.32;;;;;;;;;;7797493;22;24536;-90
2024/03/11 08:17:52;;;;;;;10.65;7.55;;;;;;;;;;7797600;22;24389;-89
2024/03/11 08:20:53;;;;;;;11.77;8.57;;;;;;;;;;7797600;22;24392;-90
2024/03/11 08:23:57;;;;;;;12.07;9.00;;;;;;;;;;7795418;22;24388;-90
2024/03/11 08:26:58;;;;;;;11.02;8.88;;;;;;;;;;7798206;22;24370;-91
2024/03/11 08:30:01;;;;;;;13.55;8.95;;;;;;;;;;7798561;22;24374;-91
2024/03/11 08:33:03;;;;;;;11.02;9.38;;;;;;;;;;7798429;22;24612;-91
2024/03/11 08:36:06;;;;;;;13.55;10.05;;;;;;;;;;7799272;22;24377;-91
2024/03/11 08:39:10;;;;;;;11.68;9.70;;;;;;;;;;7802437;22;24382;-90
2024/03/11 08:42:13;;;;;;;12.18;9.45;;;;;;;;;;7801392;22;24436;-91
2024/03/11 08:45:18;;;;;;;10.63;9.43;;;;;;;;;;7804512;22;24378;-91
2024/03/11 08:48:19;;;;;;;10.65;8.60;;;;;;;;;;7802711;22;24378;-91
2024/03/11 08:51:21;;;;;;;12.23;8.60;;;;;;;;;;7803845;22;24374;-91
2024/03/11 08:54:24;;;;;;;13.77;9.68;;;;;;;;;;7803454;22;24389;-91
2024/03/11 08:57:26;;;;;;;12.35;9.82;;;;;;;;;;7801575;22;24616;-91
2024/03/11 09:00:30;;;;;;;10.13;7.95;;;;;;;;;;7802532;22;24389;-91
2024/03/11 09:03:33;;;;;;;10.57;7.97;;;;;;;;;;7800822;22;24417;-91
2024/03/11 09:06:35;;;;;;;11.77;8.25;;;;;;;;;;7801765;22;24383;-90
2024/03/11 09:09:36;;;;;;;11.15;8.80;;;;;;;;;;7801374;22;24424;-91
2024/03/11 09:12:39;;;;;;;11.35;8.30;;;;;;;;;;7802215;22;24370;-91
2024/03/11 09:15:44;;;;;;;12.15;9.00;;;;;;;;;;7801455;22;24408;-91
2024/03/11 09:18:46;;;;;;;11.57;9.37;;;;;;;;;;7801990;22;24412;-91
2024/03/11 09:21:49;;;;;;;11.55;9.07;;;;;;;;;;7801583;22;24390;-91
2024/03/11 09:24:51;;;;;;;11.23;9.20;;;;;;;;;;7805444;22;24507;-91
2024/03/11 09:27:54;;;;;;;11.80;9.73;;;;;;;;;;7802689;22;24382;-91
2024/03/11 09:30:57;;;;;;;13.38;10.20;;;;;;;;;;7802072;22;24389;-91
2024/03/11 09:34:02;;;;;;;13.88;9.25;;;;;;;;;;7803430;22;24366;-92
2024/03/11 09:37:04;;;;;;;13.38;9.63;;;;;;;;;;7803124;22;24630;-91
2024/03/11 09:40:09;;;;;;;12.77;10.27;;;;;;;;;;7803064;22;24584;-92
2024/03/11 09:43:17;;;;;;;11.88;10.35;;;;;;;;;;7803249;22;24496;-91
2024/03/11 09:46:21;;;;;;;13.90;10.38;;;;;;;;;;7802681;22;24385;-91
2024/03/11 09:49:24;;;;;;;12.77;10.57;;;;;;;;;;7803407;22;24400;-92
2024/03/11 09:52:27;;;;;;;11.00;9.80;;;;;;;;;;7803440;22;24371;-91
2024/03/11 09:55:29;;;;;;;13.73;10.53;;;;;;;;;;7802630;22;24346;-92
2024/03/11 09:58:32;;;;;;;13.60;11.02;;;;;;;;;;7803224;22;24370;-92
2024/03/11 10:01:37;;;;;;;13.03;10.37;;;;;;;;;;7803838;22;24404;-92
2024/03/11 10:04:39;;;;;;;12.27;9.70;;;;;;;;;;7802121;22;24619;-93
2024/03/11 10:07:45;;;;;;;14.17;10.30;;;;;;;;;;7803349;22;24376;-94
2024/03/11 10:11:14;;;;;;;11.73;10.07;;;;;;;;;;7807369;22;24814;-93
2024/03/11 10:18:06;;;;;;;13.95;11.18;;;;;;;;;;7807226;22;24386;-92
2024/03/11 10:21:12;;;;;;;14.32;12.02;;;;;;;;;;7802979;22;24386;-93
2024/03/11 10:24:15;;;;;;;12.02;10.77;;;;;;;;;;7804397;22;24747;-93
2024/03/11 10:27:19;;;;;;;15.93;9.93;;;;;;;;;;7804971;22;24362;-93
2024/03/11 10:30:22;;;;;;;7.72;6.70;;;;;;;;;;7803779;22;24417;-91
2024/03/11 10:33:29;;;;;;;9.25;6.13;;;;;;;;;;7803332;22;24976;-91
2024/03/11 10:36:33;;;;;;;7.47;6.25;;;;;;;;;;7802139;22;24384;-92
2024/03/11 10:39:37;;;;;;;7.05;5.75;;;;;;;;;;7802465;22;24404;-90
2024/03/11 10:42:43;;;;;;;8.05;5.85;;;;;;;;;;7801732;22;24390;-91
2024/03/11 10:45:47;;;;;;;8.70;5.32;;;;;;;;;;7801894;22;24377;-91
2024/03/11 10:48:50;;;;;;;7.75;5.10;;;;;;;;;;7802518;22;24378;-92
2024/03/11 10:52:06;;;;;;;6.18;4.63;;;;;;;;;;7800945;22;24377;-91
2024/03/11 10:55:09;;;;;;;6.47;4.30;;;;;;;;;;7802646;22;24370;-91
2024/03/11 10:58:13;;;;;;;5.63;3.97;;;;;;;;;;7801067;22;24458;-92
2024/03/11 11:01:16;;;;;;;6.25;4.47;;;;;;;;;;7801476;22;24379;-90
2024/03/11 11:04:21;;;;;;;6.75;4.35;;;;;;;;;;7802181;22;24433;-90
2024/03/11 11:07:30;;;;;;;7.18;4.40;;;;;;;;;;7802172;22;24369;-94
2024/03/11 11:10:35;;;;;;;7.30;3.85;;;;;;;;;;7803996;22;24353;-96
2024/03/11 11:13:41;;;;;;;5.93;3.40;;;;;;;;;;7807571;22;24358;-94
2024/03/11 11:16:43;;;;;;;4.63;2.60;;;;;;;;;;7803916;22;24385;-91
2024/03/11 11:19:47;;;;;;;5.22;2.70;;;;;;;;;;7802411;22;24378;-91
2024/03/11 11:22:51;;;;;;;3.08;2.40;;;;;;;;;;7802282;22;24462;-91
2024/03/11 11:25:55;;;;;;;5.38;2.53;;;;;;;;;;7802290;22;24382;-91
2024/03/11 11:29:02;;;;;;;3.67;2.42;;;;;;;;;;7801394;22;24385;-92
2024/03/11 11:32:11;;;;;;;5.70;2.80;;;;;;;;;;7802051;22;24378;-92
2024/03/11 11:35:33;;;;;;;6.07;2.58;;;;;;;;;;7801969;22;24580;-92
2024/03/11 11:38:37;;;;;;;4.05;2.30;;;;;;;;;;7802094;22;24389;-92
2024/03/11 11:41:39;;;;;;;3.40;2.70;;;;;;;;;;7799543;22;24458;-91
2024/03/11 11:44:49;;;;;;;5.10;2.78;;;;;;;;;;7802839;22;24382;-93
2024/03/11 11:47:53;;;;;;;6.30;2.60;;;;;;;;;;7803380;22;24382;-91
2024/03/11 11:50:58;;;;;;;5.15;2.80;;;;;;;;;;7803583;22;24380;-92
2024/03/11 11:54:17;;;;;;;3.83;2.97;;;;;;;;;;7804975;22;24432;-92
2024/03/11 11:57:21;;;;;;;5.03;3.45;;;;;;;;;;7804531;22;24826;-94
2024/03/11 12:00:25;;;;;;;5.82;3.00;;;;;;;;;;7806911;22;24454;-93
2024/03/11 12:03:30;;;;;;;4.32;2.45;;;;;;;;;;7804571;22;24436;-93
2024/03/11 12:06:32;;;;;;;5.63;2.40;;;;;;;;;;7804907;22;24374;-94
2024/03/11 12:09:36;;;;;;;3.83;2.53;;;;;;;;;;7806216;22;24401;-93
2024/03/11 12:12:43;;;;;;;3.87;2.40;;;;;;;;;;7805850;22;24557;-93
2024/03/11 12:15:45;;;;;;;5.03;2.22;;;;;;;;;;7807116;22;24382;-93
2024/03/11 12:18:59;;;;;;;3.22;2.05;;;;;;;;;;7804960;22;24517;-93
2024/03/11 12:22:02;;;;;;;5.18;2.40;;;;;;;;;;7805212;22;24397;-94
2024/03/11 12:25:13;;;;;;;4.30;2.70;;;;;;;;;;7805562;22;24401;-94
2024/03/11 12:28:15;;;;;;;6.43;3.38;;;;;;;;;;7806724;22;24421;-94
2024/03/11 12:31:19;;;;;;;6.38;3.60;;;;;;;;;;7805020;22;24565;-93
2024/03/11 12:34:23;;;;;;;7.18;4.28;;;;;;;;;;7806405;22;24379;-93
2024/03/11 12:37:26;;;;;;;6.38;4.10;;;;;;;;;;7805514;22;24366;-92
2024/03/11 12:40:34;;;;;;;6.13;3.83;;;;;;;;;;7805258;22;24724;-93
2024/03/11 12:43:41;;;;;;;7.32;3.95;;;;;;;;;;7807224;22;24397;-92
2024/03/11 12:46:43;;;;;;;6.47;3.90;;;;;;;;;;7805352;22;24377;-94
2024/03/11 12:49:45;;;;;;;5.85;3.33;;;;;;;;;;7805624;22;24435;-95
2024/03/11 12:52:48;;;;;;;5.73;3.40;;;;;;;;;;7805057;22;24450;-94
2024/03/11 12:56:01;;;;;;;4.72;2.70;;;;;;;;;;7806335;22;24381;-93
2024/03/11 12:59:05;;;;;;;5.32;2.40;;;;;;;;;;7805186;22;24382;-94
2024/03/11 13:02:16;;;;;;;3.78;2.35;;;;;;;;;;7803699;22;24405;-94
2024/03/11 13:05:18;;;;;;;4.20;2.00;;;;;;;;;;7803917;22;24767;-94
2024/03/11 13:08:19;;;;;;;8.35;1.90;;;;;;;;;;7804488;22;24374;-93
2024/03/11 13:11:23;;;;;;;3.38;1.67;;;;;;;;;;7806187;22;24366;-93
2024/03/11 13:14:26;;;;;;;4.27;1.70;;;;;;;;;;7805997;22;24455;-93
2024/03/11 13:17:32;;;;;;;5.00;1.60;;;;;;;;;;7805969;22;24430;-94
2024/03/11 13:20:38;;;;;;;3.80;1.20;;;;;;;;;;7807110;22;24386;-94
2024/03/11 13:23:42;;;;;;;4.65;1.80;;;;;;;;;;7805999;22;24393;-93
2024/03/11 13:30:05;;;;;;;6.05;2.17;;;;;;;;;;7803441;22;24390;-94
2024/03/11 13:33:07;;;;;;;4.82;1.77;;;;;;;;;;7803625;22;24374;-95
2024/03/11 13:36:09;;;;;;;4.15;1.63;;;;;;;;;;7806439;22;24378;-95
2024/03/11 13:39:19;;;;;;;3.95;1.45;;;;;;;;;;7804584;22;24424;-94
2024/03/11 13:42:23;;;;;;;4.90;1.50;;;;;;;;;;7804400;22;24450;-93
2024/03/11 13:45:25;;;;;;;4.03;1.60;;;;;;;;;;7804500;22;24374;-94
2024/03/11 13:48:28;;;;;;;3.40;1.50;;;;;;;;;;7802678;22;24794;-93
2024/03/11 13:51:30;;;;;;;3.55;1.20;;;;;;;;;;7802967;22;24382;-94
2024/03/11 13:54:33;;;;;;;3.05;1.50;;;;;;;;;;7802075;22;24440;-93
2024/03/11 13:57:36;;;;;;;5.28;1.95;;;;;;;;;;7803277;22;24577;-94
2024/03/11 14:00:40;;;;;;;6.05;3.00;;;;;;;;;;7788552;22;24381;-93
2024/03/11 14:03:42;;;;;;;5.83;3.87;;;;;;;;;;7801315;22;24682;-82
2024/03/11 14:06:44;;;;;;;8.20;3.78;;;;;;;;;;7787207;22;24382;-82
2024/03/11 14:09:46;;;;;;;5.03;2.90;;;;;;;;;;7784334;22;24438;-83
2024/03/11 14:12:49;;;;;;;4.63;3.20;;;;;;;;;;7785155;22;24424;-83
2024/03/11 14:15:51;;;;;;;8.68;3.75;;;;;;;;;;7797277;22;24429;-82
2024/03/11 14:18:54;;;;;;;6.90;3.72;;;;;;;;;;7797157;22;24468;-83
2024/03/11 14:21:56;;;;;;;6.80;3.20;;;;;;;;;;7796204;22;24577;-82
2024/03/11 14:24:58;;;;;;;8.57;3.60;;;;;;;;;;7797523;22;24386;-82
2024/03/11 14:28:01;;;;;;;6.40;3.63;;;;;;;;;;7794094;22;24615;-82
2024/03/11 14:31:03;;;;;;;5.10;3.00;;;;;;;;;;7795443;22;24955;-82
2024/03/11 14:34:06;;;;;;;6.32;3.10;;;;;;;;;;7795573;22;24827;-82
2024/03/11 14:37:11;;;;;;;5.00;3.47;;;;;;;;;;7796664;22;24791;-82
2024/03/11 14:40:29;;;;;;;5.90;3.40;;;;;;;;;;7796435;22;24386;-82
2024/03/11 14:43:32;;;;;;;6.32;2.72;;;;;;;;;;7797264;22;24389;-82
2024/03/11 14:46:33;;;;;;;6.10;2.80;;;;;;;;;;7796312;22;24382;-82
2024/03/11 14:49:36;;;;;;;6.32;2.85;;;;;;;;;;7795049;22;24775;-82
2024/03/11 14:52:37;;;;;;;7.25;2.85;;;;;;;;;;7795086;22;24754;-82
2024/03/11 14:55:40;;;;;;;6.10;3.17;;;;;;;;;;7795134;22;24427;-83
2024/03/11 14:58:44;;;;;;;9.02;3.38;;;;;;;;;;7794296;22;24388;-82
2024/03/11 15:01:49;;;;;;;7.70;3.20;;;;;;;;;;7795129;22;24417;-82
2024/03/11 15:04:51;;;;;;;7.80;3.85;;;;;;;;;;7794864;22;24382;-82
2024/03/11 15:07:56;;;;;;;6.20;3.50;;;;;;;;;;7794713;22;24378;-82
2024/03/11 15:11:01;;;;;;;6.40;3.13;;;;;;;;;;7794776;22;24381;-82
2024/03/11 15:14:04;;;;;;;7.43;3.13;;;;;;;;;;7795226;22;24428;-90
2024/03/11 15:17:06;;;;;;;5.72;2.47;;;;;;;;;;7797879;22;24436;-89
2024/03/11 15:20:09;;;;;;;5.25;2.20;;;;;;;;;;7798801;22;24436;-89
2024/03/11 15:23:13;;;;;;;4.88;2.05;;;;;;;;;;7800317;22;24420;-89
2024/03/11 15:26:18;;;;;;;3.60;2.00;;;;;;;;;;7799290;22;24386;-89
2024/03/11 15:29:21;;;;;;;4.30;2.33;;;;;;;;;;7799270;22;24386;-89
2024/03/11 15:32:23;;;;;;;6.17;2.10;;;;;;;;;;7799262;22;24382;-89
2024/03/11 15:35:25;;;;;;;5.60;2.00;;;;;;;;;;7798692;22;24420;-89
2024/03/11 15:38:28;;;;;;;6.03;2.10;;;;;;;;;;7799560;22;24667;-89
2024/03/11 15:41:30;;;;;;;4.45;1.70;;;;;;;;;;7800224;22;24405;-89
2024/03/11 15:44:34;;;;;;;4.10;1.80;;;;;;;;;;7798681;22;24485;-88
2024/03/11 15:47:36;;;;;;;5.35;1.70;;;;;;;;;;7798355;22;24394;-88
2024/03/11 15:50:39;;;;;;;3.88;1.92;;;;;;;;;;7798992;22;24478;-90
2024/03/11 15:53:40;;;;;;;3.72;1.63;;;;;;;;;;7799195;22;24646;-89
2024/03/11 15:56:42;;;;;;;3.17;1.20;;;;;;;;;;7799252;22;24386;-89
2024/03/11 15:59:46;;;;;;;2.95;1.20;;;;;;;;;;7800847;22;24420;-89
2024/03/11 16:02:49;;;;;;;3.63;1.45;;;;;;;;;;7798580;22;24366;-88
2024/03/11 16:05:53;;;;;;;3.20;1.30;;;;;;;;;;7797067;22;24444;-90
2024/03/11 16:08:57;;;;;;;2.42;1.20;;;;;;;;;;7799823;22;24374;-89
2024/03/11 16:11:57;;;;;;;2.67;1.20;;;;;;;;;;7798925;22;24370;-89
2024/03/11 16:15:02;;;;;;;3.13;1.43;;;;;;;;;;7798954;22;24923;-89
2024/03/11 16:18:04;;;;;;;4.20;1.60;;;;;;;;;;7798711;22;24615;-90
2024/03/11 16:21:05;;;;;;;4.07;1.52;;;;;;;;;;7799293;22;24393;-90
2024/03/11 16:24:09;;;;;;;3.70;1.73;;;;;;;;;;7800779;22;24366;-90
2024/03/11 16:27:11;;;;;;;4.50;1.75;;;;;;;;;;7802434;22;24751;-90
2024/03/11 16:30:19;;;;;;;4.60;1.77;;;;;;;;;;7801294;22;24881;-90
2024/03/11 16:33:22;;;;;;;3.80;1.70;;;;;;;;;;7801768;22;24367;-89
2024/03/11 16:36:23;;;;;;;3.13;1.70;;;;;;;;;;7801114;22;24756;-90
2024/03/11 16:39:24;;;;;;;4.30;1.80;;;;;;;;;;7801478;22;24377;-90
2024/03/11 16:42:27;;;;;;;5.50;1.65;;;;;;;;;;7802886;22;24768;-90
2024/03/11 16:45:32;;;;;;;4.47;1.80;;;;;;;;;;7801592;22;24432;-88
2024/03/11 16:48:33;;;;;;;3.30;1.60;;;;;;;;;;7801997;22;24374;-90
2024/03/11 16:51:37;;;;;;;4.35;1.70;;;;;;;;;;7800647;22;24374;-90
2024/03/11 16:54:39;;;;;;;3.47;1.60;;;;;;;;;;7801897;22;24370;-90
2024/03/11 16:57:42;;;;;;;4.43;1.63;;;;;;;;;;7802139;22;24727;-90
2024/03/11 17:00:47;;;;;;;6.68;2.20;;;;;;;;;;7802513;22;24489;-90
2024/03/11 17:03:49;;;;;;;5.63;2.50;;;;;;;;;;7801895;22;24408;-89
2024/03/11 17:06:51;;;;;;;6.53;3.00;;;;;;;;;;7798794;22;24370;-91
2024/03/11 17:09:52;;;;;;;5.20;3.05;;;;;;;;;;7800582;22;24379;-89
2024/03/11 17:12:55;;;;;;;7.35;3.38;;;;;;;;;;7800407;22;24382;-90
2024/03/11 17:15:57;;;;;;;8.93;3.30;;;;;;;;;;7799063;22;24382;-89
2024/03/11 17:18:58;;;;;;;5.72;3.53;;;;;;;;;;7798305;22;24370;-89
2024/03/11 17:22:00;;;;;;;7.70;3.70;;;;;;;;;;7795818;22;24370;-88
2024/03/11 17:25:01;;;;;;;7.70;3.67;;;;;;;;;;7796293;22;24417;-88
2024/03/11 17:28:06;;;;;;;6.90;3.83;;;;;;;;;;7796649;22;24643;-89
2024/03/11 17:31:11;;;;;;;5.45;3.13;;;;;;;;;;7796602;22;24385;-89
2024/03/11 17:34:16;;;;;;;6.40;3.45;;;;;;;;;;7796591;22;24427;-89
2024/03/11 17:37:20;;;;;;;37.03;18.98;;;;;;;;;;7799667;22;24461;-93
2024/03/11 17:40:22;;;;;;;126.07;54.58;;;;;;;;;;7804565;22;24419;-93
2024/03/11 17:43:23;;;;;;;51.33;20.63;;;;;;;;;;7805039;22;24397;-93
2024/03/11 17:46:30;;;;;;;10.05;3.58;;;;;;;;;;7799783;22;24384;-87
2024/03/11 17:49:32;;;;;;;6.97;3.13;;;;;;;;;;7796111;22;24398;-88
2024/03/11 17:52:36;;;;;;;6.03;3.22;;;;;;;;;;7796204;22;24374;-87
2024/03/11 17:55:38;;;;;;;8.82;3.63;;;;;;;;;;7795493;22;24416;-87
2024/03/11 17:58:39;;;;;;;6.90;2.93;;;;;;;;;;7796108;22;24428;-88
2024/03/11 18:01:44;;;;;;;5.18;3.15;;;;;;;;;;7796128;22;24378;-87
2024/03/11 18:04:45;;;;;;;6.68;3.47;;;;;;;;;;7792653;22;24413;-88
2024/03/11 18:07:48;;;;;;;5.63;3.30;;;;;;;;;;7795632;22;24805;-88
2024/03/11 18:10:49;;;;;;;7.20;3.88;;;;;;;;;;7795741;22;24382;-88
2024/03/11 18:13:55;;;;;;;7.57;3.60;;;;;;;;;;7795896;22;24374;-88
2024/03/11 18:16:58;;;;;;;6.67;3.97;;;;;;;;;;7796107;22;24402;-88
2024/03/11 18:20:00;;;;;;;7.40;3.72;;;;;;;;;;7796198;22;24374;-88
2024/03/11 18:23:02;;;;;;;6.73;3.93;;;;;;;;;;7795980;22;24541;-88